Terminal Aerodrome Forecast
Issued by NWS

Home | Current Version | Previous Version | Text Only | Print | Product List | Glossary Off
Versions: 1 2 3 4 5 6 7 8 9 10 11 12 13 14 15 16 17 18

000
FTUS43 KMPX 290845 AAB
TAFAXN
TAF AMD
KAXN 290845Z 2909/3006 29008KT P6SM VCSH OVC007
     FM291300 29004KT 5SM BR BKN009
     FM291500 29009KT P6SM BKN020
     FM291900 28012G17KT P6SM SCT030 SCT150
     FM300200 29006KT P6SM SKC=

USA.gov is the U.S. government's official web portal to all federal, state and local government web resources and services.